createdAt,value
2019-02-21T00:00:43.443Z,0.00
2019-02-21T00:01:43.471Z,0.00
2019-02-21T00:02:43.501Z,0.00
2019-02-21T00:03:43.544Z,0.00
2019-02-21T00:04:43.563Z,0.00
2019-02-21T00:05:43.605Z,0.00
2019-02-21T00:06:43.624Z,0.00
2019-02-21T00:07:43.699Z,0.00
2019-02-21T00:08:43.701Z,0.00
2019-02-21T00:09:43.717Z,0.00
2019-02-21T00:10:43.747Z,0.00
2019-02-21T00:11:43.783Z,0.00
2019-02-21T00:12:43.807Z,0.00
2019-02-21T00:13:43.838Z,0.00
2019-02-21T00:14:43.873Z,0.00
2019-02-21T00:15:43.901Z,0.00
2019-02-21T00:16:43.929Z,0.00
2019-02-21T00:17:43.960Z,0.00
2019-02-21T00:18:43.996Z,0.00
2019-02-21T00:19:44.022Z,0.00
2019-02-21T00:20:44.054Z,0.00
2019-02-21T00:21:44.083Z,0.00
2019-02-21T00:22:44.114Z,0.00
2019-02-21T00:23:44.143Z,0.00
2019-02-21T00:24:44.174Z,0.00
2019-02-21T00:25:44.206Z,0.00
2019-02-21T00:26:44.432Z,0.00
2019-02-21T00:27:44.265Z,0.00
2019-02-21T00:28:44.296Z,0.00
2019-02-21T00:29:44.330Z,0.00
2019-02-21T00:30:44.368Z,0.00
2019-02-21T00:31:44.389Z,0.00
2019-02-21T00:32:44.419Z,0.00
2019-02-21T00:33:44.451Z,0.00
2019-02-21T00:34:44.479Z,0.00
2019-02-21T00:35:44.511Z,0.00
2019-02-21T00:36:44.541Z,0.00
2019-02-21T00:37:44.573Z,0.00
2019-02-21T00:38:44.606Z,0.00
2019-02-21T00:39:44.634Z,0.00
2019-02-21T00:40:44.663Z,0.00
2019-02-21T00:41:44.694Z,0.00
2019-02-21T00:42:44.725Z,0.00
2019-02-21T00:43:44.755Z,0.00
2019-02-21T00:44:44.786Z,0.00
2019-02-21T00:45:44.819Z,0.00
2019-02-21T00:46:44.847Z,0.00
2019-02-21T00:47:44.879Z,0.00
2019-02-21T00:48:44.907Z,0.00
2019-02-21T00:49:44.937Z,0.00
2019-02-21T00:50:44.970Z,0.00
2019-02-21T00:51:44.999Z,0.00
2019-02-21T00:52:45.034Z,0.00
2019-02-21T00:53:45.060Z,0.00
2019-02-21T00:54:45.092Z,0.00
2019-02-21T00:55:45.197Z,0.00
2019-02-21T00:56:45.153Z,0.00
2019-02-21T00:57:45.183Z,0.00
2019-02-21T00:58:45.213Z,0.00
2019-02-21T00:59:45.243Z,0.00
2019-02-21T01:00:46.814Z,0.00
2019-02-21T01:01:45.319Z,0.00
2019-02-21T01:02:45.335Z,0.00
2019-02-21T01:03:45.367Z,0.00
2019-02-21T01:04:45.396Z,0.00
2019-02-21T01:05:45.427Z,0.00
2019-02-21T01:06:45.458Z,0.00
2019-02-21T01:07:45.487Z,0.00
2019-02-21T01:08:45.517Z,0.00
2019-02-21T01:09:45.552Z,0.00
2019-02-21T01:10:45.580Z,0.00
2019-02-21T01:11:45.608Z,0.00
2019-02-21T01:12:45.647Z,0.00
2019-02-21T01:13:45.676Z,0.00
2019-02-21T01:14:45.704Z,0.00
2019-02-21T01:15:45.734Z,0.00
2019-02-21T01:16:45.762Z,0.00
2019-02-21T01:17:45.797Z,0.00
2019-02-21T01:18:45.846Z,0.00
2019-02-21T01:19:45.853Z,0.00
2019-02-21T01:20:45.885Z,0.00
2019-02-21T01:21:45.914Z,0.00
2019-02-21T01:22:45.947Z,0.00
2019-02-21T01:23:45.976Z,0.00
2019-02-21T01:24:46.006Z,0.00
2019-02-21T01:25:46.038Z,0.00
2019-02-21T01:26:46.067Z,0.00
2019-02-21T01:27:46.099Z,0.00
2019-02-21T01:28:46.128Z,0.00
2019-02-21T01:29:46.161Z,0.00
2019-02-21T01:30:56.395Z,0.00
2019-02-21T01:31:46.220Z,0.00
2019-02-21T01:32:46.250Z,0.00
2019-02-21T01:33:46.282Z,0.00
2019-02-21T01:34:46.311Z,0.00
2019-02-21T01:35:46.343Z,0.00
2019-02-21T01:36:46.373Z,0.00
2019-02-21T01:37:46.411Z,0.00
2019-02-21T01:38:46.439Z,0.00
2019-02-21T01:39:46.464Z,0.00
2019-02-21T01:40:46.495Z,0.00
2019-02-21T01:41:46.525Z,0.00
2019-02-21T01:42:46.556Z,0.00
2019-02-21T01:43:46.585Z,0.00
2019-02-21T01:44:46.617Z,0.00
2019-02-21T01:45:46.646Z,0.00
2019-02-21T01:46:46.679Z,0.00
2019-02-21T01:47:46.713Z,0.00
2019-02-21T01:48:46.737Z,0.00
2019-02-21T01:49:46.771Z,0.00
2019-02-21T01:50:46.799Z,0.00
2019-02-21T01:51:46.831Z,0.00
2019-02-21T01:52:46.859Z,0.00
2019-02-21T01:53:46.890Z,0.00
2019-02-21T01:54:46.921Z,0.00
2019-02-21T01:55:46.951Z,0.00
2019-02-21T01:56:46.982Z,0.00
2019-02-21T01:57:47.011Z,0.00
2019-02-21T01:58:47.043Z,0.00
2019-02-21T01:59:47.073Z,0.00
2019-02-21T02:00:47.104Z,0.00
2019-02-21T02:01:47.134Z,0.00
2019-02-21T02:02:47.165Z,0.00
2019-02-21T02:03:47.195Z,0.00
2019-02-21T02:04:47.226Z,0.00
2019-02-21T02:05:47.257Z,0.00
2019-02-21T02:06:47.289Z,0.00
2019-02-21T02:07:47.332Z,0.00
2019-02-21T02:08:47.348Z,0.00
2019-02-21T02:09:47.439Z,0.00
2019-02-21T02:10:47.410Z,0.00
2019-02-21T02:11:47.442Z,0.00
2019-02-21T02:12:47.469Z,0.00
2019-02-21T02:13:47.500Z,0.00
2019-02-21T02:14:47.532Z,0.00
2019-02-21T02:15:47.560Z,0.00
2019-02-21T02:16:47.592Z,0.00
2019-02-21T02:17:47.621Z,0.00
2019-02-21T02:18:47.654Z,0.00
2019-02-21T02:19:47.683Z,0.00
2019-02-21T02:20:47.713Z,0.00
2019-02-21T02:21:47.745Z,0.00
2019-02-21T02:22:47.777Z,0.00
2019-02-21T02:23:47.807Z,0.00
2019-02-21T02:24:47.835Z,0.00
2019-02-21T02:25:47.867Z,0.00
2019-02-21T02:26:47.899Z,0.00
2019-02-21T02:27:48.023Z,0.00
2019-02-21T02:28:47.959Z,0.00
2019-02-21T02:29:47.989Z,0.00
2019-02-21T02:30:48.018Z,0.00
2019-02-21T02:31:48.056Z,0.00
2019-02-21T02:32:48.110Z,0.00
2019-02-21T02:33:48.158Z,0.00
2019-02-21T02:34:48.141Z,0.00
2019-02-21T02:35:48.171Z,0.00
2019-02-21T02:36:48.216Z,0.00
2019-02-21T02:37:48.234Z,0.00
2019-02-21T02:38:48.262Z,0.00
2019-02-21T02:39:48.295Z,0.00
2019-02-21T02:40:48.349Z,0.00
2019-02-21T02:41:48.355Z,0.00
2019-02-21T02:42:48.384Z,0.00
2019-02-21T02:43:48.415Z,0.00
2019-02-21T02:44:48.449Z,0.00
2019-02-21T02:45:48.512Z,0.00
2019-02-21T02:46:48.510Z,0.00
2019-02-21T02:47:48.535Z,0.00
2019-02-21T02:48:48.567Z,0.00
2019-02-21T02:49:48.598Z,0.00
2019-02-21T02:50:48.630Z,0.00
2019-02-21T02:51:48.659Z,0.00
2019-02-21T02:52:48.698Z,0.00
2019-02-21T02:53:48.718Z,0.00
2019-02-21T02:54:48.749Z,0.00
2019-02-21T02:55:48.780Z,0.00
2019-02-21T02:56:48.816Z,0.00
2019-02-21T02:57:48.843Z,0.00
2019-02-21T02:58:48.872Z,0.00
2019-02-21T02:59:48.901Z,0.00
2019-02-21T03:00:48.932Z,0.00
2019-02-21T03:01:48.964Z,0.00
2019-02-21T03:02:48.995Z,0.00
2019-02-21T03:03:49.023Z,0.00
2019-02-21T03:04:49.094Z,0.00
2019-02-21T03:05:49.084Z,0.00
2019-02-21T03:06:49.116Z,0.00
2019-02-21T03:07:49.146Z,0.00
2019-02-21T03:08:49.178Z,0.00
2019-02-21T03:09:49.206Z,0.00
2019-02-21T03:10:49.237Z,0.00
2019-02-21T03:11:51.739Z,0.00
2019-02-21T03:12:49.300Z,0.00
2019-02-21T03:13:49.327Z,0.00
2019-02-21T03:14:49.359Z,0.00
2019-02-21T03:15:49.389Z,0.00
2019-02-21T03:16:49.425Z,0.00
2019-02-21T03:17:49.451Z,0.00
2019-02-21T03:18:49.481Z,0.00
2019-02-21T03:19:49.606Z,0.00
2019-02-21T03:20:49.540Z,0.00
2019-02-21T03:21:49.576Z,0.00
2019-02-21T03:22:49.601Z,0.00
2019-02-21T03:23:49.632Z,0.00
2019-02-21T03:24:49.661Z,0.00
2019-02-21T03:25:49.693Z,0.00
2019-02-21T03:26:49.723Z,0.00
2019-02-21T03:27:49.752Z,0.00
2019-02-21T03:28:49.798Z,0.00
2019-02-21T03:29:49.818Z,0.00
2019-02-21T03:30:49.849Z,0.00
2019-02-21T03:31:55.219Z,0.00
2019-02-21T03:32:49.923Z,0.00
2019-02-21T03:33:49.943Z,0.00
2019-02-21T03:34:49.969Z,0.00
2019-02-21T03:35:49.997Z,0.00
2019-02-21T03:36:50.044Z,0.00
2019-02-21T03:37:50.059Z,0.00
2019-02-21T03:38:50.099Z,0.00
2019-02-21T03:39:50.117Z,0.00
2019-02-21T03:40:50.152Z,0.00
2019-02-21T03:41:50.183Z,0.00
2019-02-21T03:42:50.217Z,0.00
2019-02-21T03:43:50.238Z,0.00
2019-02-21T03:44:50.269Z,0.00
2019-02-21T03:45:50.300Z,0.00
2019-02-21T03:46:50.331Z,0.00
2019-02-21T03:47:50.360Z,0.00
2019-02-21T03:48:50.392Z,0.00
2019-02-21T03:49:50.424Z,0.00
2019-02-21T03:50:50.457Z,0.00
2019-02-21T03:51:50.488Z,0.00
2019-02-21T03:52:50.513Z,0.00
2019-02-21T03:53:50.543Z,0.00
2019-02-21T03:54:50.591Z,0.00
2019-02-21T03:55:50.604Z,0.00
2019-02-21T03:56:50.635Z,0.00
2019-02-21T03:57:50.666Z,0.00
2019-02-21T03:58:50.696Z,0.00
2019-02-21T03:59:50.734Z,0.00
2019-02-21T04:00:50.755Z,0.00
2019-02-21T04:01:50.792Z,0.00
2019-02-21T04:02:50.834Z,0.00
2019-02-21T04:03:50.846Z,0.00
2019-02-21T04:04:50.877Z,0.00
2019-02-21T04:05:50.908Z,0.00
2019-02-21T04:06:50.944Z,0.00
2019-02-21T04:07:50.970Z,0.00
2019-02-21T04:08:50.998Z,0.00
2019-02-21T04:09:51.059Z,0.00
2019-02-21T04:10:51.059Z,0.00
2019-02-21T04:11:51.091Z,0.00
2019-02-21T04:12:51.119Z,0.00
2019-02-21T04:13:51.154Z,0.00
2019-02-21T04:14:51.194Z,0.00
2019-02-21T04:15:51.213Z,0.00
2019-02-21T04:16:51.245Z,0.00
2019-02-21T04:17:51.273Z,0.00
2019-02-21T04:18:51.301Z,0.00
2019-02-21T04:19:51.331Z,0.00
2019-02-21T04:20:51.363Z,0.00
2019-02-21T04:21:51.394Z,0.00
2019-02-21T04:22:51.423Z,0.00
2019-02-21T04:23:51.453Z,0.00
2019-02-21T04:24:51.488Z,0.00
2019-02-21T04:25:51.516Z,0.00
2019-02-21T04:26:51.544Z,0.00
2019-02-21T04:27:51.574Z,0.00
2019-02-21T04:28:51.606Z,0.00
2019-02-21T04:29:51.636Z,0.00
2019-02-21T04:30:51.666Z,0.00
2019-02-21T04:31:51.694Z,0.00
2019-02-21T04:32:51.730Z,0.00
2019-02-21T04:33:51.768Z,0.00
2019-02-21T04:34:51.788Z,0.00
2019-02-21T04:35:51.817Z,0.00
2019-02-21T04:36:51.847Z,0.00
2019-02-21T04:37:51.885Z,0.00
2019-02-21T04:38:51.908Z,0.00
2019-02-21T04:39:51.937Z,0.00
2019-02-21T04:40:51.971Z,0.00
2019-02-21T04:41:51.999Z,0.00
2019-02-21T04:42:52.029Z,0.00
2019-02-21T04:43:52.063Z,0.00
2019-02-21T04:44:52.094Z,0.00
2019-02-21T04:45:52.122Z,0.00
2019-02-21T04:46:52.152Z,0.00
2019-02-21T04:47:52.180Z,0.00
2019-02-21T04:48:52.211Z,0.00
2019-02-21T04:49:52.242Z,0.00
2019-02-21T04:50:54.412Z,0.00
2019-02-21T04:51:52.301Z,0.00
2019-02-21T04:52:52.332Z,0.00
2019-02-21T04:53:52.394Z,0.00
2019-02-21T04:54:52.393Z,0.00
2019-02-21T04:55:52.448Z,0.00
2019-02-21T04:56:52.453Z,0.00
2019-02-21T04:57:52.541Z,0.00
2019-02-21T04:58:52.533Z,0.00
2019-02-21T04:59:52.545Z,0.00
2019-02-21T05:00:52.583Z,0.00
2019-02-21T05:01:52.605Z,0.00
2019-02-21T05:02:52.636Z,0.00
2019-02-21T05:03:52.668Z,0.00
2019-02-21T05:04:52.694Z,0.00
2019-02-21T05:05:52.732Z,0.00
2019-02-21T05:06:52.756Z,0.00
2019-02-21T05:07:52.785Z,0.00
2019-02-21T05:08:52.815Z,0.00
2019-02-21T05:09:57.901Z,0.00
2019-02-21T05:10:52.885Z,0.00
2019-02-21T05:11:52.909Z,0.00
2019-02-21T05:12:52.940Z,0.00
2019-02-21T05:13:52.969Z,0.00
2019-02-21T05:14:52.999Z,0.00
2019-02-21T05:15:53.030Z,0.00
2019-02-21T05:16:53.057Z,0.00
2019-02-21T05:17:53.089Z,0.00
2019-02-21T05:18:53.119Z,0.00
2019-02-21T05:19:53.148Z,0.00
2019-02-21T05:20:53.178Z,0.00
2019-02-21T05:21:53.210Z,0.00
2019-02-21T05:22:53.242Z,0.00
2019-02-21T05:23:53.272Z,0.00
2019-02-21T05:24:53.300Z,0.00
2019-02-21T05:25:53.331Z,0.00
2019-02-21T05:26:53.362Z,0.00
2019-02-21T05:27:53.391Z,0.00
2019-02-21T05:28:53.426Z,0.00
2019-02-21T05:29:53.484Z,0.00
2019-02-21T05:30:53.579Z,0.00
2019-02-21T05:31:53.513Z,0.00
2019-02-21T05:32:53.544Z,0.00
2019-02-21T05:33:53.573Z,0.00
2019-02-21T05:34:53.603Z,0.00
2019-02-21T05:35:53.633Z,0.00
2019-02-21T05:36:53.664Z,0.00
2019-02-21T05:37:53.693Z,0.00
2019-02-21T05:38:53.724Z,0.00
2019-02-21T05:39:53.756Z,0.00
2019-02-21T05:40:53.783Z,0.00
2019-02-21T05:41:53.815Z,0.00
2019-02-21T05:42:53.844Z,0.00
2019-02-21T05:43:53.874Z,0.00
2019-02-21T05:44:53.905Z,0.00
2019-02-21T05:45:53.938Z,0.00
2019-02-21T05:46:53.967Z,0.00
2019-02-21T05:47:53.995Z,0.00
2019-02-21T05:48:54.025Z,0.00
2019-02-21T05:49:54.055Z,0.00
2019-02-21T05:50:54.086Z,0.00
2019-02-21T05:51:54.117Z,0.00
2019-02-21T05:52:54.153Z,0.00
2019-02-21T05:53:54.181Z,0.00
2019-02-21T05:54:54.208Z,0.00
2019-02-21T05:55:54.239Z,0.00
2019-02-21T05:56:54.283Z,0.00
2019-02-21T05:57:54.302Z,0.00
2019-02-21T05:58:54.327Z,0.00
2019-02-21T05:59:54.376Z,0.00
2019-02-21T06:00:54.392Z,0.00
2019-02-21T06:01:54.420Z,4.00
2019-02-21T06:02:54.449Z,4.00
2019-02-21T06:03:54.487Z,4.00
2019-02-21T06:04:54.509Z,4.00
2019-02-21T06:05:54.543Z,0.00
2019-02-21T06:06:54.569Z,4.00
2019-02-21T06:07:54.630Z,4.00
2019-02-21T06:08:54.675Z,4.00
2019-02-21T06:09:54.659Z,8.00
2019-02-21T06:10:54.691Z,8.00
2019-02-21T06:11:54.719Z,4.00
2019-02-21T06:12:54.749Z,4.00
2019-02-21T06:13:54.784Z,4.00
2019-02-21T06:14:54.848Z,8.00
2019-02-21T06:15:54.844Z,8.00
2019-02-21T06:16:54.871Z,8.00
2019-02-21T06:17:54.902Z,8.00
2019-02-21T06:18:54.933Z,12.00
2019-02-21T06:19:54.961Z,12.00
2019-02-21T06:20:57.512Z,12.00
2019-02-21T06:21:55.028Z,16.00
2019-02-21T06:22:55.052Z,16.00
2019-02-21T06:23:55.083Z,20.00
2019-02-21T06:24:55.112Z,24.00
2019-02-21T06:25:58.866Z,28.00
2019-02-21T06:26:55.173Z,28.00
2019-02-21T06:27:55.206Z,28.00
2019-02-21T06:28:55.237Z,32.00
2019-02-21T06:29:55.265Z,32.00
2019-02-21T06:30:55.294Z,36.00
2019-02-21T06:31:55.323Z,36.00
2019-02-21T06:33:04.585Z,40.00
2019-02-21T06:33:55.383Z,40.00
2019-02-21T06:34:55.414Z,40.00
2019-02-21T06:35:55.444Z,40.00
2019-02-21T06:36:55.483Z,40.00
2019-02-21T06:37:55.507Z,44.00
2019-02-21T06:38:55.539Z,44.00
2019-02-21T06:39:55.564Z,48.00
2019-02-21T06:40:55.595Z,48.00
2019-02-21T06:41:59.638Z,52.00
2019-02-21T06:42:55.662Z,48.00
2019-02-21T06:43:56.858Z,52.00
2019-02-21T06:44:55.718Z,56.00
2019-02-21T06:45:57.844Z,64.00
2019-02-21T06:46:55.779Z,64.00
2019-02-21T06:47:55.810Z,72.00
2019-02-21T06:48:55.837Z,76.00
2019-02-21T06:49:55.867Z,84.00
2019-02-21T06:50:55.896Z,92.00
2019-02-21T06:51:55.931Z,104.00
2019-02-21T06:52:55.957Z,120.00
2019-02-21T06:53:55.987Z,132.00
2019-02-21T06:54:56.018Z,148.00
2019-02-21T06:55:56.050Z,164.00
2019-02-21T06:56:56.084Z,176.00
2019-02-21T06:57:56.108Z,188.00
2019-02-21T06:58:56.138Z,196.00
2019-02-21T06:59:56.169Z,204.00
2019-02-21T07:00:56.201Z,212.00
2019-02-21T07:01:56.230Z,220.00
2019-02-21T07:02:56.272Z,228.00
2019-02-21T07:03:56.289Z,236.00
2019-02-21T07:04:56.790Z,240.00
2019-02-21T07:05:56.352Z,240.00
2019-02-21T07:06:56.955Z,236.00
2019-02-21T07:07:56.410Z,232.00
2019-02-21T07:08:56.448Z,224.00
2019-02-21T07:09:56.472Z,228.00
2019-02-21T07:11:05.933Z,220.00
2019-02-21T07:11:56.534Z,220.00
2019-02-21T07:12:56.562Z,216.00
2019-02-21T07:13:56.595Z,220.00
2019-02-21T07:14:56.621Z,224.00
2019-02-21T07:15:58.486Z,220.00
2019-02-21T07:16:56.682Z,224.00
2019-02-21T07:17:56.715Z,216.00
2019-02-21T07:18:56.746Z,212.00
2019-02-21T07:19:56.775Z,212.00
2019-02-21T07:20:56.853Z,200.00
2019-02-21T07:21:56.836Z,192.00
2019-02-21T07:22:56.867Z,180.00
2019-02-21T07:23:56.894Z,172.00
2019-02-21T07:24:56.934Z,160.00
2019-02-21T07:25:56.956Z,156.00
2019-02-21T07:26:56.985Z,152.00
2019-02-21T07:27:58.380Z,152.00
2019-02-21T07:28:58.393Z,148.00
2019-02-21T07:29:57.077Z,144.00
2019-02-21T07:30:57.109Z,140.00
2019-02-21T07:31:57.137Z,136.00
2019-02-21T07:32:57.166Z,140.00
2019-02-21T07:33:57.202Z,140.00
2019-02-21T07:34:57.233Z,140.00
2019-02-21T07:35:57.256Z,148.00
2019-02-21T07:36:57.291Z,152.00
2019-02-21T07:37:57.318Z,160.00
2019-02-21T07:39:13.930Z,172.00
2019-02-21T07:39:57.378Z,188.00
2019-02-21T07:40:57.426Z,196.00
2019-02-21T07:41:57.441Z,208.00
2019-02-21T07:42:58.692Z,216.00
2019-02-21T07:43:57.499Z,224.00
2019-02-21T07:44:59.702Z,228.00
2019-02-21T07:45:57.560Z,236.00
2019-02-21T07:46:57.593Z,240.00
2019-02-21T07:47:57.624Z,252.00
2019-02-21T07:48:57.650Z,252.00
2019-02-21T07:49:57.683Z,256.00
2019-02-21T07:50:57.712Z,252.00
2019-02-21T07:51:57.741Z,252.00
2019-02-21T07:53:02.572Z,252.00
2019-02-21T07:53:57.805Z,252.00
2019-02-21T07:55:01.919Z,252.00
2019-02-21T07:55:57.863Z,256.00
2019-02-21T07:56:57.900Z,260.00
2019-02-21T07:57:57.926Z,268.00
2019-02-21T07:58:57.955Z,272.00
2019-02-21T07:59:58.033Z,276.00
2019-02-21T08:00:58.015Z,276.00
2019-02-21T08:01:58.050Z,268.00
2019-02-21T08:02:58.077Z,260.00
2019-02-21T08:03:58.106Z,248.00
2019-02-21T08:04:58.136Z,244.00
2019-02-21T08:05:58.166Z,244.00
2019-02-21T08:06:58.197Z,240.00
2019-02-21T08:07:58.235Z,240.00
2019-02-21T08:08:58.260Z,244.00
2019-02-21T08:09:58.288Z,252.00
2019-02-21T08:10:58.319Z,264.00
2019-02-21T08:11:58.350Z,272.00
2019-02-21T08:12:58.380Z,284.00
2019-02-21T08:13:58.410Z,292.00
2019-02-21T08:14:58.440Z,292.00
2019-02-21T08:15:58.473Z,292.00
2019-02-21T08:16:58.500Z,284.00
2019-02-21T08:17:58.531Z,268.00
2019-02-21T08:18:58.562Z,256.00
2019-02-21T08:20:07.949Z,252.00
2019-02-21T08:20:58.622Z,244.00
2019-02-21T08:22:00.241Z,240.00
2019-02-21T08:22:58.683Z,244.00
2019-02-21T08:23:59.304Z,244.00
2019-02-21T08:24:58.743Z,240.00
2019-02-21T08:25:58.777Z,240.00
2019-02-21T08:26:58.804Z,244.00
2019-02-21T08:27:58.846Z,248.00
2019-02-21T08:28:58.868Z,256.00
2019-02-21T08:29:58.896Z,260.00
2019-02-21T08:30:58.925Z,268.00
2019-02-21T08:31:58.957Z,280.00
2019-02-21T08:32:58.984Z,292.00
2019-02-21T08:33:59.129Z,308.00
2019-02-21T08:34:59.053Z,316.00
2019-02-21T08:35:59.077Z,320.00
2019-02-21T08:36:59.106Z,320.00
2019-02-21T08:37:59.136Z,320.00
2019-02-21T08:38:59.168Z,312.00
2019-02-21T08:39:59.196Z,304.00
2019-02-21T08:40:59.229Z,300.00
2019-02-21T08:41:59.258Z,292.00
2019-02-21T08:42:59.287Z,288.00
2019-02-21T08:43:59.317Z,284.00
2019-02-21T08:44:59.348Z,284.00
2019-02-21T08:45:59.380Z,292.00
2019-02-21T08:46:59.411Z,312.00
2019-02-21T08:47:59.437Z,340.00
2019-02-21T08:48:59.468Z,364.00
2019-02-21T08:49:59.866Z,392.00
2019-02-21T08:50:59.530Z,416.00
2019-02-21T08:51:59.561Z,448.00
2019-02-21T08:53:01.055Z,476.00
2019-02-21T08:53:59.626Z,512.00
2019-02-21T08:55:00.606Z,544.00
2019-02-21T08:55:59.679Z,572.00
2019-02-21T08:56:59.757Z,600.00
2019-02-21T08:57:59.742Z,628.00
2019-02-21T08:58:59.775Z,660.00
2019-02-21T08:59:59.801Z,652.00
2019-02-21T09:00:59.834Z,608.00
2019-02-21T09:01:59.866Z,544.00
2019-02-21T09:02:59.892Z,500.00
2019-02-21T09:04:09.875Z,472.00
2019-02-21T09:04:59.956Z,464.00
2019-02-21T09:05:59.983Z,440.00
2019-02-21T09:07:00.014Z,416.00
2019-02-21T09:08:00.045Z,388.00
2019-02-21T09:09:00.077Z,376.00
2019-02-21T09:10:00.218Z,384.00
2019-02-21T09:11:00.136Z,404.00
2019-02-21T09:12:00.165Z,424.00
2019-02-21T09:13:00.200Z,448.00
2019-02-21T09:14:00.227Z,468.00
2019-02-21T09:15:00.587Z,472.00
2019-02-21T09:16:00.284Z,468.00
2019-02-21T09:17:00.325Z,456.00
2019-02-21T09:18:00.345Z,452.00
2019-02-21T09:19:00.377Z,452.00
2019-02-21T09:20:00.407Z,456.00
2019-02-21T09:21:00.438Z,464.00
2019-02-21T09:22:00.475Z,472.00
2019-02-21T09:23:00.497Z,492.00
2019-02-21T09:24:00.526Z,512.00
2019-02-21T09:25:02.657Z,536.00
2019-02-21T09:26:00.590Z,556.00
2019-02-21T09:27:00.618Z,576.00
2019-02-21T09:28:00.651Z,592.00
2019-02-21T09:29:00.679Z,612.00
2019-02-21T09:30:00.709Z,644.00
2019-02-21T09:31:00.749Z,660.00
2019-02-21T09:32:00.773Z,660.00
2019-02-21T09:33:00.800Z,684.00
2019-02-21T09:34:00.833Z,756.00
2019-02-21T09:35:00.865Z,852.00
2019-02-21T09:36:00.891Z,908.00
2019-02-21T09:37:01.041Z,952.00
2019-02-21T09:38:00.951Z,980.00
2019-02-21T09:39:00.982Z,1008.00
2019-02-21T09:40:01.011Z,1072.00
2019-02-21T09:41:01.042Z,1112.00
2019-02-21T09:42:01.072Z,1148.00
2019-02-21T09:43:01.104Z,1200.00
2019-02-21T09:44:01.133Z,1280.00
2019-02-21T09:45:01.166Z,1348.00
2019-02-21T09:46:01.196Z,1424.00
2019-02-21T09:47:01.224Z,1472.00
2019-02-21T09:48:01.257Z,1528.00
2019-02-21T09:49:02.970Z,1504.00
2019-02-21T09:50:01.322Z,1456.00
2019-02-21T09:51:01.347Z,1436.00
2019-02-21T09:52:01.376Z,1432.00
2019-02-21T09:53:01.407Z,1540.00
2019-02-21T09:54:01.440Z,1808.00
2019-02-21T09:55:01.468Z,2092.00
2019-02-21T09:56:01.505Z,2328.00
2019-02-21T09:57:12.424Z,2484.00
2019-02-21T09:58:01.563Z,2112.00
2019-02-21T09:59:01.598Z,1768.00
2019-02-21T10:00:01.623Z,1636.00
2019-02-21T10:01:01.652Z,1300.00
2019-02-21T10:02:01.682Z,1044.00
2019-02-21T10:03:01.722Z,1084.00
2019-02-21T10:04:01.807Z,1444.00
2019-02-21T10:05:05.103Z,2044.00
2019-02-21T10:06:01.806Z,2768.00
2019-02-21T10:07:01.837Z,1992.00
2019-02-21T10:08:01.877Z,2348.00
2019-02-21T10:09:01.901Z,2432.00
2019-02-21T10:10:01.930Z,3644.00
2019-02-21T10:11:01.962Z,5440.00
2019-02-21T10:12:01.991Z,8964.00
2019-02-21T10:13:02.027Z,3224.00
2019-02-21T10:14:02.053Z,3884.00
2019-02-21T10:15:02.094Z,4680.00
2019-02-21T10:16:04.640Z,18976.00
2019-02-21T10:17:02.147Z,16928.00
2019-02-21T10:18:02.222Z,13628.00
2019-02-21T10:19:02.209Z,18560.00
2019-02-21T10:20:04.147Z,10652.00
2019-02-21T10:21:02.270Z,5136.00
2019-02-21T10:22:04.428Z,5616.00
2019-02-21T10:23:02.337Z,4984.00
2019-02-21T10:24:02.376Z,9396.00
2019-02-21T10:25:02.398Z,11508.00
2019-02-21T10:26:02.431Z,33696.00
2019-02-21T10:27:02.462Z,38880.00
2019-02-21T10:28:02.495Z,42688.00
2019-02-21T10:29:02.530Z,33792.00
2019-02-21T10:30:02.564Z,32480.00
2019-02-21T10:31:02.593Z,35168.00
2019-02-21T10:32:02.627Z,21248.00
2019-02-21T10:33:02.662Z,9104.00
2019-02-21T10:34:02.694Z,11508.00
2019-02-21T10:35:02.730Z,28864.00
2019-02-21T10:36:02.763Z,20096.00
2019-02-21T10:37:02.799Z,13304.00
2019-02-21T10:38:02.833Z,34624.00
2019-02-21T10:39:02.869Z,13584.00
2019-02-21T10:40:02.903Z,12176.00
2019-02-21T10:41:02.940Z,22944.00
2019-02-21T10:42:02.974Z,6700.00
2019-02-21T10:43:03.011Z,24160.00
2019-02-21T10:44:03.045Z,25984.00
2019-02-21T10:45:03.589Z,35520.00
2019-02-21T10:46:03.117Z,40896.00
2019-02-21T10:47:03.156Z,40352.00
2019-02-21T10:48:03.194Z,37376.00
2019-02-21T10:49:03.235Z,9640.00
2019-02-21T10:50:03.264Z,38016.00
2019-02-21T10:51:03.308Z,34912.00
2019-02-21T10:52:03.339Z,44224.00
2019-02-21T10:53:03.387Z,38688.00
2019-02-21T10:54:03.416Z,39488.00
2019-02-21T10:55:03.453Z,31264.00
2019-02-21T10:56:03.491Z,31904.00
2019-02-21T10:57:03.530Z,38752.00
2019-02-21T10:58:03.571Z,37696.00
2019-02-21T10:59:03.607Z,26656.00
2019-02-21T11:00:03.647Z,32864.00
2019-02-21T11:01:03.685Z,30976.00
2019-02-21T11:02:03.729Z,5928.00
2019-02-21T11:03:03.770Z,3416.00
2019-02-21T11:04:03.809Z,2892.00
2019-02-21T11:05:03.844Z,3296.00
2019-02-21T11:06:03.885Z,4172.00
2019-02-21T11:07:03.923Z,5864.00
2019-02-21T11:08:03.962Z,4312.00
2019-02-21T11:09:04.002Z,9688.00
2019-02-21T11:10:04.045Z,19552.00
2019-02-21T11:11:04.082Z,31904.00
2019-02-21T11:12:04.120Z,32480.00
2019-02-21T11:13:04.169Z,35744.00
2019-02-21T11:14:04.202Z,29056.00
2019-02-21T11:15:04.236Z,35008.00
2019-02-21T11:16:04.278Z,38464.00
2019-02-21T11:17:04.319Z,36160.00
2019-02-21T11:18:04.352Z,39296.00
2019-02-21T11:19:04.394Z,29824.00
2019-02-21T11:20:04.431Z,29216.00
2019-02-21T11:21:04.470Z,40800.00
2019-02-21T11:22:04.518Z,40992.00
2019-02-21T11:23:06.503Z,40192.00
2019-02-21T11:24:04.590Z,31840.00
2019-02-21T11:25:04.632Z,36480.00
2019-02-21T11:26:04.672Z,34880.00
2019-02-21T11:27:04.713Z,32992.00
2019-02-21T11:28:04.753Z,38656.00
2019-02-21T11:29:04.796Z,14408.00
2019-02-21T11:30:04.836Z,14912.00
2019-02-21T11:31:04.877Z,6920.00
2019-02-21T11:32:04.932Z,4288.00
2019-02-21T11:33:04.960Z,2564.00
2019-02-21T11:34:05.001Z,2200.00
2019-02-21T11:35:06.483Z,2120.00
2019-02-21T11:36:05.087Z,2400.00
2019-02-21T11:37:05.124Z,2388.00
2019-02-21T11:38:05.170Z,2332.00
2019-02-21T11:39:05.206Z,3064.00
2019-02-21T11:40:05.681Z,3668.00
2019-02-21T11:41:05.286Z,5268.00
2019-02-21T11:42:05.323Z,9896.00
2019-02-21T11:43:05.367Z,20192.00
2019-02-21T11:44:05.402Z,23456.00
2019-02-21T11:45:05.440Z,46752.00
2019-02-21T11:46:05.498Z,42048.00
2019-02-21T11:47:05.519Z,38336.00
2019-02-21T11:48:05.560Z,38720.00
2019-02-21T11:49:05.597Z,38784.00
2019-02-21T11:50:05.645Z,40448.00
2019-02-21T11:51:07.438Z,37152.00
2019-02-21T11:52:10.135Z,40160.00
2019-02-21T11:53:05.752Z,42336.00
2019-02-21T11:54:05.793Z,29408.00
2019-02-21T11:55:05.834Z,43584.00
2019-02-21T11:56:05.874Z,45632.00
2019-02-21T11:57:05.914Z,45824.00
2019-02-21T11:58:05.955Z,30144.00
2019-02-21T11:59:05.994Z,15040.00
2019-02-21T12:00:06.038Z,9092.00
2019-02-21T12:01:06.075Z,10952.00
2019-02-21T12:02:06.117Z,4488.00
2019-02-21T12:03:06.160Z,3744.00
2019-02-21T12:04:06.203Z,2624.00
2019-02-21T12:05:16.659Z,3120.00
2019-02-21T12:06:06.283Z,1580.00
2019-02-21T12:07:06.357Z,1332.00
2019-02-21T12:08:06.367Z,1240.00
2019-02-21T12:09:06.408Z,1140.00
2019-02-21T12:10:06.447Z,1184.00
2019-02-21T12:11:06.487Z,1128.00
2019-02-21T12:12:06.547Z,932.00
2019-02-21T12:13:06.567Z,788.00
2019-02-21T12:14:06.611Z,856.00
2019-02-21T12:15:06.649Z,1012.00
2019-02-21T12:16:06.684Z,1428.00
2019-02-21T12:17:06.741Z,1944.00
2019-02-21T12:18:06.763Z,2420.00
2019-02-21T12:19:06.802Z,2376.00
2019-02-21T12:20:06.842Z,2020.00
2019-02-21T12:21:06.882Z,2028.00
2019-02-21T12:22:06.918Z,2436.00
2019-02-21T12:23:06.955Z,2792.00
2019-02-21T12:24:06.992Z,2912.00
2019-02-21T12:25:07.030Z,2620.00
2019-02-21T12:26:07.069Z,1676.00
2019-02-21T12:27:07.107Z,1124.00
2019-02-21T12:28:07.143Z,1112.00
2019-02-21T12:29:07.179Z,1276.00
2019-02-21T12:30:07.218Z,1440.00
2019-02-21T12:31:07.261Z,1080.00
2019-02-21T12:32:07.291Z,792.00
2019-02-21T12:33:07.331Z,692.00
2019-02-21T12:34:07.365Z,668.00
2019-02-21T12:35:07.403Z,648.00
2019-02-21T12:36:07.437Z,668.00
2019-02-21T12:37:07.476Z,660.00
2019-02-21T12:38:07.512Z,536.00
2019-02-21T12:39:07.547Z,448.00
2019-02-21T12:40:07.586Z,420.00
2019-02-21T12:41:07.619Z,408.00
2019-02-21T12:42:07.656Z,404.00
2019-02-21T12:43:07.692Z,384.00
2019-02-21T12:44:07.742Z,368.00
2019-02-21T12:45:07.787Z,380.00
2019-02-21T12:46:07.800Z,408.00